Flight Track Log - Related Links

Times and Time Zones

All times are in EDT time to prevent confusion due to time zone crossing. See the SWA771 flight status page for this flight to view local times or setup timezone preferences in your user account.

Time Position Orientation Groundspeed Altitude Reporting Facility
EDT Latitude Longitude Course Direction KTS MPH feet Rate Location/Type
Sat 11:08:20 AM 39.9667 -104.7000 307° West 228 262 8,000  Level Denver TRACON
Sat 11:09:13 AM 40.0131 -104.7222 340° North 227 261 10,000 1,617 Climbing Denver Center
Sat 11:10:15 AM 40.0847 -104.7492 344° North 279 321 11,100 1,452 Climbing Denver Center
Sat 11:11:17 AM 40.1811 -104.7939 340° North 345 397 13,000 2,032 Climbing Denver Center
Sat 11:12:19 AM 40.2794 -104.8400 340° North 373 429 15,300 2,371 Climbing Denver Center
Sat 11:13:00 AM 40.2468 -105.3549 307° West  Level Estimated
Sat 11:13:21 AM 40.3892 -104.8942 339° North 390 449 17,900  Level Denver Center
Sat 11:14:23 AM 40.4967 -104.9422 341° North 407 468 20,500 2,419 Climbing Denver Center
Sat 11:15:25 AM 40.6108 -104.9978 340° North 407 468 22,900 2,032 Climbing Denver Center
Sat 11:16:27 AM 40.7203 -105.0494 340° North 420 483 24,700 1,839 Climbing Denver Center
Sat 11:17:29 AM 40.8197 -105.1267 330° Northwest 415 478 26,700 1,790 Climbing Denver Center
Sat 11:18:31 AM 40.9106 -105.2331 319° Northwest 434 499 28,400 1,694 Climbing Denver Center
Sat 11:19:33 AM 41.0039 -105.3389 319° Northwest 441 507 30,200 1,968 Climbing Denver Center
Sat 11:20:36 AM 41.0869 -105.4908 306° West 429 494 32,500 2,016 Climbing Denver Center
Sat 11:21:38 AM 41.1439 -105.6197 300° West 424 488 34,400 1,597 Climbing Denver Center
Sat 11:22:40 AM 41.1975 -105.7450 300° West 414 476 35,800 774 Climbing Denver Center
Sat 11:23:42 AM 41.2606 -105.8900 300° West 408 470 36,000 194 Climbing Denver Center
Sat 11:24:44 AM 41.3139 -106.0158 299° West 408 470 36,200 968 Climbing Denver Center
Sat 11:25:46 AM 41.3747 -106.1597 299° West 401 461 38,000 871 Climbing Denver Center
Sat 11:26:48 AM 41.4278 -106.2833 300° West 400 460 38,000  Level Denver Center
Sat 11:27:50 AM 41.4861 -106.4269 299° West 396 456 38,000  Level Denver Center
Sat 11:29:04 AM 41.5408 -106.5575 299° West 396 456 38,000  Level Denver Center
Sat 11:30:06 AM 41.6100 -106.7217 299° West 396 456 38,000  Level Denver Center
Sat 11:31:08 AM 41.6611 -106.8453 299° West 398 458 38,000  Level Denver Center
Sat 11:32:10 AM 41.7203 -106.9889 299° West 396 456 38,000  Level Denver Center
Sat 11:33:13 AM 41.7714 -107.1139 299° West 398 458 38,000  Level Denver Center
Sat 11:34:15 AM 41.8300 -107.2572 299° West 396 456 38,000  Level Denver Center
Sat 11:35:17 AM 41.8803 -107.3817 299° West 397 457 38,000  Level Denver Center
Sat 11:36:19 AM 41.9392 -107.5281 298° West 399 459 38,000  Level Denver Center
Sat 11:37:21 AM 41.9889 -107.6522 298° West 397 457 38,000  Level Denver Center
Sat 11:37:51 AM 42.0125 -107.7139 297° West 397 457 38,000  Level Salt Lake Center
Sat 11:38:53 AM 42.0708 -107.8578 299° West 394 453 38,000  Level Salt Lake Center
Sat 11:39:55 AM 42.1203 -107.9825 298° West 396 456 38,000  Level Salt Lake Center
Sat 11:40:57 AM 42.1781 -108.1308 298° West 400 460 38,000  Level Salt Lake Center
Sat 11:41:59 AM 42.2286 -108.2553 299° West 398 458 38,000  Level Salt Lake Center
Sat 11:43:01 AM 42.2853 -108.4022 298° West 398 458 38,000  Level Salt Lake Center
Sat 11:44:03 AM 42.3344 -108.5267 298° West 397 457 38,000  Level Salt Lake Center
Sat 11:45:05 AM 42.3911 -108.6725 298° West 394 453 38,000  Level Salt Lake Center
Sat 11:46:07 AM 42.4381 -108.7969 297° West 391 450 38,000  Level Salt Lake Center
Sat 11:47:09 AM 42.4933 -108.9408 298° West 389 448 38,000  Level Salt Lake Center
Sat 11:48:11 AM 42.5406 -109.0647 297° West 387 445 38,000  Level Salt Lake Center
Sat 11:49:13 AM 42.5953 -109.2092 297° West 387 445 38,000  Level Salt Lake Center
Sat 11:50:15 AM 42.6414 -109.3317 297° West 384 442 38,000  Level Salt Lake Center
Sat 11:51:17 AM 42.6875 -109.4550 297° West 383 441 38,000  Level Salt Lake Center
Sat 11:52:19 AM 42.7433 -109.6003 298° West 388 447 38,000  Level Salt Lake Center
Sat 11:53:21 AM 42.7903 -109.7250 297° West 389 448 38,000  Level Salt Lake Center
Sat 11:54:23 AM 42.8419 -109.8631 297° West 391 450 38,000  Level Salt Lake Center
Sat 11:55:25 AM 42.8961 -110.0117 296° West 392 451 38,000  Level Salt Lake Center
Sat 11:56:27 AM 42.9422 -110.1397 296° West 392 451 38,000  Level Salt Lake Center
Sat 11:57:29 AM 42.9964 -110.2889 296° West 392 451 38,000  Level Salt Lake Center
Sat 11:58:31 AM 43.0431 -110.4153 297° West 390 449 38,000  Level Salt Lake Center
Sat 11:59:32 AM 43.0969 -110.5611 297° West 386 444 38,000  Level Salt Lake Center
Sat 12:00:34 PM 43.1431 -110.6861 297° West 385 443 38,000  Level Salt Lake Center
Sat 12:01:36 PM 43.1892 -110.8136 296° West 389 448 38,000  Level Salt Lake Center
Sat 12:02:38 PM 43.2419 -110.9633 296° West 391 450 38,000  Level Salt Lake Center
Sat 12:03:40 PM 43.2886 -111.0917 297° West 392 451 38,000  Level Salt Lake Center
Sat 12:04:42 PM 43.3419 -111.2419 296° West 391 450 38,000  Level Salt Lake Center
Sat 12:05:44 PM 43.3867 -111.3731 295° West 393 452 38,000  Level Salt Lake Center
Sat 12:06:46 PM 43.4400 -111.5236 296° West 393 452 38,000  Level Salt Lake Center
Sat 12:07:48 PM 43.4856 -111.6531 296° West 392 451 38,000  Level Salt Lake Center
Sat 12:08:50 PM 43.5378 -111.8053 295° West 392 451 38,000  Level Salt Lake Center
Sat 12:09:52 PM 43.5836 -111.9342 296° West 391 450 38,000  Level Salt Lake Center
Sat 12:10:54 PM 43.6269 -112.0619 295° West 386 444 38,000  Level Salt Lake Center
Sat 12:11:56 PM 43.6781 -112.2119 295° West 386 444 38,000  Level Salt Lake Center
Sat 12:12:58 PM 43.7208 -112.3397 295° West 385 443 38,000  Level Salt Lake Center
Sat 12:13:59 PM 43.7719 -112.4881 296° West 381 438 38,000  Level Salt Lake Center
Sat 12:15:01 PM 43.8150 -112.6189 295° West 386 444 38,000  Level Salt Lake Center
Sat 12:16:03 PM 43.8664 -112.7722 295° West 391 450 38,000  Level Salt Lake Center
Sat 12:17:05 PM 43.9100 -112.9025 295° West 390 449 38,000  Level Salt Lake Center
Sat 12:18:07 PM 43.9606 -113.0553 295° West 389 448 38,000  Level Salt Lake Center
Sat 12:19:09 PM 44.0053 -113.1897 295° West 396 456 38,000  Level Salt Lake Center
Sat 12:20:11 PM 44.0569 -113.3475 295° West 400 460 38,000  Level Salt Lake Center
Sat 12:21:13 PM 44.1014 -113.4853 294° West 404 465 38,000  Level Salt Lake Center
Sat 12:22:15 PM 44.1469 -113.6233 295° West 408 470 38,000  Level Salt Lake Center
Sat 12:23:17 PM 44.2014 -113.7858 295° West 412 474 38,000  Level Salt Lake Center
Sat 12:24:19 PM 44.2467 -113.9242 295° West 412 474 38,000  Level Salt Lake Center
Sat 12:25:21 PM 44.2983 -114.0881 294° West 414 476 38,000  Level Salt Lake Center
Sat 12:26:23 PM 44.3417 -114.2294 293° West 415 478 38,000  Level Salt Lake Center
Sat 12:27:25 PM 44.3933 -114.3936 294° West 414 476 38,000  Level Salt Lake Center
Sat 12:28:27 PM 44.4372 -114.5347 294° West 414 476 38,000  Level Salt Lake Center
Sat 12:29:29 PM 44.4992 -114.6944 299° West 416 479 38,000  Level Salt Lake Center
Sat 12:30:32 PM 44.5528 -114.8319 299° West 420 483 38,000  Level Salt Lake Center
Sat 12:31:34 PM 44.6158 -114.9903 299° West 416 479 38,000  Level Salt Lake Center
Sat 12:32:36 PM 44.6697 -115.1272 299° West 418 481 38,000  Level Salt Lake Center
Sat 12:33:38 PM 44.7236 -115.2642 299° West 419 482 38,000  Level Salt Lake Center
Sat 12:34:40 PM 44.7881 -115.4239 300° West 421 484 38,000  Level Salt Lake Center
Sat 12:35:42 PM 44.8444 -115.5728 298° West 422 486 38,000  Level Salt Lake Center
Sat 12:36:44 PM 44.9000 -115.7147 299° West 417 480 38,000  Level Salt Lake Center
Sat 12:37:46 PM 44.9553 -115.8589 298° West 419 482 38,000 -48 Level Salt Lake Center
Sat 12:38:48 PM 45.0172 -116.0228 298° West 420 483 37,900 -48 Descending Salt Lake Center
Sat 12:39:50 PM 45.0719 -116.1672 298° West 417 480 37,900  Level Salt Lake Center
Sat 12:40:52 PM 45.1256 -116.3111 298° West 416 479 37,900  Level Salt Lake Center
Sat 12:41:54 PM 45.1797 -116.4542 298° West 414 476 37,900  Level Salt Lake Center
Sat 12:43:04 PM 45.2439 -116.6244 298° West 410 472 37,900 46 Level Seattle Center
Sat 12:44:05 PM 45.2975 -116.7697 298° West 415 478 38,000 49 Climbing Seattle Center
Sat 12:45:06 PM 45.3503 -116.9106 298° West 406 467 38,000 -49 Level Seattle Center
Sat 12:46:08 PM 45.4031 -117.0567 297° West 412 474 37,900 -49 Descending Seattle Center
Sat 12:47:09 PM 45.4553 -117.2006 297° West 412 474 37,900  Level Seattle Center
Sat 12:48:10 PM 45.5089 -117.3447 298° West 411 473 37,900 49 Level Seattle Center
Sat 12:49:11 PM 45.5631 -117.4975 297° West 413 475 38,000 49 Climbing Seattle Center
Sat 12:50:13 PM 45.6158 -117.6433 297° West 414 476 38,000  Level Seattle Center
Sat 12:51:14 PM 45.6783 -117.8175 297° West 413 475 38,000  Level Seattle Center
Sat 12:52:15 PM 45.7294 -117.9603 297° West 414 476 38,000 -49 Level Seattle Center
Sat 12:53:17 PM 45.7817 -118.1086 297° West 417 480 37,900 -49 Descending Seattle Center
Sat 12:54:18 PM 45.8333 -118.2550 297° West 415 478 37,900  Level Seattle Center
Sat 12:55:19 PM 45.8839 -118.4014 296° West 412 474 37,900 49 Level Seattle Center
Sat 12:56:21 PM 45.9356 -118.5494 297° West 410 472 38,000 49 Climbing Seattle Center
Sat 12:57:22 PM 45.9864 -118.6956 297° West 410 472 38,000  Level Seattle Center
Sat 12:58:23 PM 46.0358 -118.8408 296° West 409 471 38,000  Level Seattle Center
Sat 12:59:25 PM 46.0961 -119.0161 296° West 409 471 38,000  Level Seattle Center
Sat 01:00:26 PM 46.1456 -119.1622 296° West 408 470 38,000  Level Seattle Center
Sat 01:01:28 PM 46.1956 -119.3125 296° West 412 474 38,000  Level Seattle Center
Sat 01:02:29 PM 46.2464 -119.4633 296° West 419 482 38,000  Level Seattle Center
Sat 01:03:30 PM 46.2956 -119.6117 296° West 415 478 38,000 -295 Level Seattle Center
Sat 01:04:31 PM 46.3444 -119.7586 296° West 408 470 37,400 -1,475 Descending Seattle Center
Sat 01:05:32 PM 46.3933 -119.9075 296° West 410 472 35,000 -1,902 Descending Seattle Center
Sat 01:06:34 PM 46.4417 -120.0517 296° West 403 464 33,500 -1,659 Descending Seattle Center
Sat 01:07:35 PM 46.4886 -120.1967 295° West 398 458 31,600 -2,066 Descending Seattle Center
Sat 01:08:36 PM 46.5417 -120.3619 295° West 380 437 29,300 -2,066 Descending Seattle Center
Sat 01:09:37 PM 46.5903 -120.4933 298° West 372 428 27,400 -1,869 Descending Seattle Center
Sat 01:10:38 PM 46.6492 -120.6136 306° West 366 421 25,500 -1,805 Descending Seattle Center
Sat 01:11:40 PM 46.7044 -120.7308 305° West 356 410 23,700 -1,707 Descending Seattle Center
Sat 01:12:41 PM 46.7594 -120.8456 305° West 348 400 22,000 -1,721 Descending Seattle Center
Sat 01:13:42 PM 46.8119 -120.9572 305° West 337 388 20,200 -1,672 Descending Seattle Center
Sat 01:14:43 PM 46.8639 -121.0672 305° West 331 381 18,600 -1,574 Descending Seattle Center
Sat 01:15:44 PM 46.9156 -121.1775 304° West 330 380 17,000 -1,610 Descending Seattle Center
Sat 01:16:46 PM 46.9639 -121.2881 303° West 328 377 15,300 -1,805 Descending Seattle Center
Sat 01:17:47 PM 47.0231 -121.4094 306° West 313 360 13,300 -1,623 Descending Seattle Center
Sat 01:18:48 PM 47.0711 -121.5128 304° West 306 352 12,000 -1,033 Descending Seattle Center
Sat 01:19:49 PM 47.1222 -121.6233 304° West 302 348 11,200 -934 Descending Seattle Center
Sat 01:20:50 PM 47.1683 -121.7250 304° West 297 342 10,100 -1,268 Descending Seattle Center
Sat 01:21:52 PM 47.1586 -121.8414 263° West 290 334 8,600 -1,415 Descending Seattle Center
Sat 01:22:53 PM 47.1461 -121.9542 261° West 282 325 7,200 -1,082 Descending Seattle Center
Sat 01:23:54 PM 47.1375 -122.0694 264° West 267 307 6,400 -590 Descending Seattle Center
Sat 01:24:55 PM 47.1461 -122.1603 278° West 243 280 6,000 -639 Descending Seattle Center
Sat 01:25:56 PM 47.1725 -122.2497 293° West 241 277 5,100 -829 Descending Seattle Center
Sat 01:26:58 PM 47.2203 -122.3144 317° Northwest 245 282 4,300 -1,024 Descending Seattle Center
Sat 01:27:59 PM 47.2839 -122.3183 358° North 220 253 3,000 -885 Descending Seattle Center
Sat 01:29:00 PM 47.3342 -122.3186 360° North 181 208 2,500 -639 Descending Seattle Center
Sat 01:30:01 PM 47.3775 -122.3186 360° North 158 182 1,700 -756 Descending Seattle Center
Sat 01:31:15 PM 47.4242 -122.3197 359° North 133 153 800 -634 Descending Seattle Center
Sat 01:32:04 PM 47.4539 -122.3183 North 136 157 400 -490 Descending Seattle Center

Login

Don't have an account? Register now (free) for customized features, flight alerts, and more!